Time;durP1;ratioP1;P1;durP2;ratioP2;P2;SDS_P1;SDS_P2;PMS_P1;PMS_P2;Temp;Humidity;BMP_temperature;BMP_pressure;BME280_temperature;BME280_humidity;BME280_pressure;Samples;Min_cycle;Max_cycle;Signal;HPM_P1;HPM_P2
2022/08/26 00:03:14;;;;;;;0.98;0.77;;;;;;;17.08;77.62;101739.91;10573585;28;20043;-73
2022/08/26 00:08:17;;;;;;;2.30;1.35;;;;;;;17.07;77.57;101741.84;10574059;28;20051;-73
2022/08/26 00:13:20;;;;;;;0.85;0.85;;;;;;;17.08;78.05;101748.22;10573132;28;20040;-73
2022/08/26 00:18:23;;;;;;;1.83;1.20;;;;;;;17.13;77.70;101748.97;10574798;28;20051;-73
2022/08/26 00:23:25;;;;;;;1.63;1.30;;;;;;;17.09;78.08;101745.16;10572787;28;20405;-73
2022/08/26 00:28:28;;;;;;;1.65;1.30;;;;;;;17.06;77.54;101756.03;10573067;28;20051;-73
2022/08/26 00:33:30;;;;;;;2.22;1.17;;;;;;;17.03;78.18;101757.44;10573452;28;20509;-73
2022/08/26 00:38:32;;;;;;;1.50;1.40;;;;;;;17.05;78.20;101762.69;10573818;28;20044;-73
2022/08/26 00:43:35;;;;;;;1.60;1.05;;;;;;;17.03;78.16;101753.84;10573250;28;20039;-73
2022/08/26 00:48:39;;;;;;;1.50;1.40;;;;;;;16.98;78.91;101751.94;10572819;28;20059;-73
2022/08/26 00:53:47;;;;;;;1.00;0.95;;;;;;;16.97;78.51;101755.03;10571604;28;20040;-73
2022/08/26 00:58:49;;;;;;;1.05;1.00;;;;;;;17.01;78.15;101756.94;10571428;28;20044;-73
2022/08/26 01:03:52;;;;;;;1.17;1.05;;;;;;;16.94;78.60;101762.00;10571128;28;20407;-73
2022/08/26 01:08:55;;;;;;;2.72;1.10;;;;;;;16.96;78.55;101765.28;10571435;28;20048;-73
2022/08/26 01:13:59;;;;;;;1.67;1.10;;;;;;;16.95;78.59;101760.03;10572832;28;20044;-73
2022/08/26 01:19:20;;;;;;;1.30;1.20;;;;;;;16.88;78.49;101764.00;10570828;28;20048;-73
2022/08/26 01:24:26;;;;;;;1.23;1.00;;;;;;;16.86;78.73;101762.66;10570407;28;20050;-73
2022/08/26 01:29:30;;;;;;;1.27;1.17;;;;;;;16.84;78.74;101764.91;10570124;28;20052;-73
2022/08/26 01:34:37;;;;;;;0.90;0.85;;;;;;;16.80;78.89;101761.06;10569978;28;20040;-73
2022/08/26 01:39:39;;;;;;;2.22;1.10;;;;;;;16.80;78.76;101752.72;10569986;28;20329;-73
2022/08/26 01:44:48;;;;;;;1.20;1.00;;;;;;;16.77;79.03;101751.38;10569877;28;20048;-73
2022/08/26 01:49:52;;;;;;;1.02;0.93;;;;;;;16.75;79.48;101750.03;10570368;28;20322;-73
2022/08/26 01:54:55;;;;;;;1.20;1.10;;;;;;;16.69;79.62;101746.50;10568635;28;20510;-73
2022/08/26 02:00:01;;;;;;;1.45;1.33;;;;;;;16.75;79.90;101742.53;10569608;28;20044;-73
2022/08/26 02:05:05;;;;;;;2.30;1.27;;;;;;;16.71;79.93;101737.91;10568895;28;20379;-73
2022/08/26 02:10:08;;;;;;;1.42;1.20;;;;;;;16.74;80.16;101734.53;10568931;28;20047;-73
2022/08/26 02:15:11;;;;;;;1.25;1.15;;;;;;;16.71;80.26;101730.41;10570752;28;20048;-73
2022/08/26 02:20:17;;;;;;;2.00;1.55;;;;;;;16.63;81.02;101727.41;10569745;28;20425;-73
2022/08/26 02:25:28;;;;;;;1.48;1.05;;;;;;;16.57;81.30;101727.47;10568566;28;20529;-73
2022/08/26 02:30:31;;;;;;;2.00;1.30;;;;;;;16.70;81.13;101739.84;10572709;28;20044;-73
2022/08/26 02:35:34;;;;;;;4.22;1.17;;;;;;;16.70;81.50;101736.25;10577440;28;20051;-73
2022/08/26 02:40:39;;;;;;;1.42;1.27;;;;;;;16.72;81.47;101734.00;10560752;28;20133;-73
2022/08/26 02:45:42;;;;;;;1.65;1.42;;;;;;;16.64;81.68;101734.59;10578290;28;20052;-73
2022/08/26 02:50:45;;;;;;;1.90;1.20;;;;;;;16.66;81.57;101736.00;10577709;28;20047;-72
2022/08/26 02:55:48;;;;;;;1.10;1.00;;;;;;;16.66;82.04;101732.34;10577516;28;20047;-72
2022/08/26 03:00:50;;;;;;;1.30;1.20;;;;;;;16.71;81.83;101729.59;10577243;28;20044;-72
2022/08/26 03:05:53;;;;;;;1.85;1.33;;;;;;;16.68;82.04;101735.72;10577694;28;20056;-72
2022/08/26 03:10:55;;;;;;;1.75;1.05;;;;;;;16.55;82.01;101738.03;10576834;28;20039;-72
2022/08/26 03:16:00;;;;;;;2.17;1.27;;;;;;;16.69;81.86;101729.88;10575685;28;20055;-72
2022/08/26 03:21:09;;;;;;;1.83;1.10;;;;;;;16.79;81.75;101731.69;10576612;28;20051;-72
2022/08/26 03:26:13;;;;;;;3.22;1.00;;;;;;;16.82;82.09;101736.63;10576929;28;20508;-72
2022/08/26 03:31:15;;;;;;;1.30;1.20;;;;;;;16.81;81.95;101727.50;10574883;28;20529;-71
2022/08/26 03:36:18;;;;;;;1.90;1.10;;;;;;;16.78;82.07;101725.31;10574478;28;20048;-71
2022/08/26 03:41:20;;;;;;;1.35;1.23;;;;;;;16.83;82.38;101732.72;10569897;28;20410;-71
2022/08/26 03:46:22;;;;;;;1.65;1.10;;;;;;;16.91;82.15;101729.31;10574210;28;20056;-73
2022/08/26 03:51:25;;;;;;;1.33;1.13;;;;;;;16.96;81.75;101737.56;10574216;28;20506;-73
2022/08/26 03:56:28;;;;;;;1.60;1.10;;;;;;;17.02;81.66;101741.94;10575204;28;20032;-73
2022/08/26 04:01:31;;;;;;;1.33;1.00;;;;;;;17.02;81.40;101749.44;10575078;28;20529;-73
2022/08/26 04:06:36;;;;;;;1.10;1.00;;;;;;;16.89;81.35;101753.75;10573462;28;20067;-73
2022/08/26 04:11:40;;;;;;;1.02;0.95;;;;;;;16.95;81.50;101765.59;10574329;28;20040;-73
2022/08/26 04:16:43;;;;;;;1.88;1.40;;;;;;;16.97;81.29;101755.84;10574425;28;20052;-73
2022/08/26 04:21:47;;;;;;;1.30;1.00;;;;;;;17.01;81.35;101756.94;10574079;28;20040;-73
2022/08/26 04:26:49;;;;;;;2.20;1.10;;;;;;;17.07;81.51;101766.81;10573821;28;20395;-73
2022/08/26 04:31:55;;;;;;;1.10;1.00;;;;;;;17.11;80.93;101769.81;10573556;28;20051;-73
2022/08/26 04:36:58;;;;;;;1.02;0.77;;;;;;;16.98;80.70;101770.53;10573414;28;20505;-73
2022/08/26 04:42:00;;;;;;;2.08;1.40;;;;;;;16.85;81.39;101761.00;10573136;28;20043;-73
2022/08/26 04:47:03;;;;;;;1.42;1.20;;;;;;;16.95;81.56;101760.88;10573165;28;20055;-73
2022/08/26 04:52:05;;;;;;;3.70;1.17;;;;;;;17.05;81.09;101763.53;10572807;28;20043;-73
2022/08/26 04:57:07;;;;;;;0.95;0.85;;;;;;;17.00;81.08;101769.09;10572656;28;20054;-73
2022/08/26 05:02:10;;;;;;;2.60;1.08;;;;;;;16.95;80.98;101763.63;10572881;28;20040;-73
2022/08/26 05:07:12;;;;;;;1.58;1.15;;;;;;;16.99;81.16;101763.88;10572178;28;20589;-72
2022/08/26 05:12:15;;;;;;;2.20;0.73;;;;;;;17.07;81.03;101760.44;10572862;28;20073;-75
2022/08/26 05:17:17;;;;;;;1.33;1.00;;;;;;;17.11;80.97;101758.72;10572552;28;20044;-73
2022/08/26 05:22:19;;;;;;;1.40;1.02;;;;;;;17.20;80.50;101756.94;10572264;28;20055;-73
2022/08/26 05:27:22;;;;;;;3.38;1.15;;;;;;;17.40;80.22;101758.59;10571376;28;20044;-75
2022/08/26 05:32:24;;;;;;;1.20;1.10;;;;;;;17.40;79.73;101764.16;10571260;28;20039;-75
2022/08/26 05:37:26;;;;;;;1.90;1.10;;;;;;;17.43;79.43;101769.91;10571096;28;20047;-75
2022/08/26 05:42:28;;;;;;;0.80;0.80;;;;;;;17.43;78.65;101769.91;10571408;28;20494;-75
2022/08/26 05:47:31;;;;;;;4.30;0.98;;;;;;;17.54;78.68;101769.78;10570981;28;20048;-76
2022/08/26 05:52:33;;;;;;;1.98;0.85;;;;;;;17.62;78.42;101766.31;10571061;28;20059;-75
2022/08/26 05:57:35;;;;;;;1.35;0.65;;;;;;;17.61;77.94;101764.66;10569054;28;20057;-77
2022/08/26 06:02:38;;;;;;;2.97;0.90;;;;;;;17.52;78.03;101764.50;10551654;28;20043;-77
2022/08/26 06:13:01;;;;;;;1.35;0.90;;;;;;;17.46;78.67;101755.44;10569029;28;20055;-75
2022/08/26 06:18:04;;;;;;;2.30;1.40;;;;;;;17.47;78.86;101753.50;10569794;28;20043;-75
2022/08/26 06:28:26;;;;;;;2.00;1.10;;;;;;;17.37;78.99;101756.44;10570443;28;20055;-75
2022/08/26 06:33:30;;;;;;;0.93;0.88;;;;;;;17.36;78.45;101746.47;10570038;28;20040;-75
2022/08/26 06:38:32;;;;;;;1.38;1.10;;;;;;;17.38;79.21;101746.97;10570301;28;20521;-75
2022/08/26 06:43:34;;;;;;;3.53;1.40;;;;;;;17.42;79.52;101750.81;10569517;28;20036;-75
2022/08/26 06:48:38;;;;;;;2.55;1.02;;;;;;;17.47;79.24;101747.94;10568206;28;20056;-76
2022/08/26 06:53:41;;;;;;;3.70;1.27;;;;;;;17.54;78.69;101739.25;10569169;28;20035;-75
2022/08/26 06:58:44;;;;;;;3.28;1.10;;;;;;;17.62;78.11;101744.09;10569606;28;20061;-75
2022/08/26 07:03:48;;;;;;;1.98;0.82;;;;;;;17.76;78.01;101743.06;10569038;28;20040;-75
2022/08/26 07:08:51;;;;;;;1.33;1.00;;;;;;;17.88;77.60;101741.78;10568526;28;20044;-75
2022/08/26 07:13:53;;;;;;;3.03;1.00;;;;;;;17.91;76.09;101744.78;10568831;28;20048;-75
2022/08/26 07:18:56;;;;;;;1.70;0.93;;;;;;;17.88;76.38;101748.16;10577325;28;20036;-75
2022/08/26 07:23:59;;;;;;;1.40;0.90;;;;;;;17.91;75.90;101743.97;10577140;28;20414;-75
2022/08/26 07:29:02;;;;;;;1.05;0.73;;;;;;;17.98;75.73;101747.16;10576628;28;20062;-75
2022/08/26 07:34:06;;;;;;;1.50;0.63;;;;;;;17.99;75.06;101743.25;10575106;28;20048;-75
2022/08/26 07:39:08;;;;;;;2.55;1.05;;;;;;;17.93;74.92;101755.56;10575770;28;20055;-75
2022/08/26 07:44:11;;;;;;;1.52;1.17;;;;;;;17.99;75.40;101754.34;10575020;28;20043;-75
2022/08/26 07:49:13;;;;;;;2.28;1.08;;;;;;;18.05;75.27;101753.16;10573989;28;20058;-75
2022/08/26 07:54:15;;;;;;;4.90;1.27;;;;;;;18.13;75.51;101751.63;10575091;28;20036;-75
2022/08/26 07:59:18;;;;;;;2.47;1.15;;;;;;;18.19;75.23;101748.44;10573979;28;20040;-76
2022/08/26 08:04:20;;;;;;;4.03;1.38;;;;;;;18.24;75.25;101758.66;10575409;28;20052;-75
2022/08/26 08:09:22;;;;;;;1.83;1.45;;;;;;;18.20;75.72;101760.38;10574485;28;20102;-76
2022/08/26 08:14:24;;;;;;;3.15;1.30;;;;;;;18.22;75.75;101758.97;10573536;28;20075;-75
2022/08/26 08:19:26;;;;;;;2.95;1.30;;;;;;;18.20;75.96;101757.59;10574222;28;20044;-75
2022/08/26 08:24:29;;;;;;;1.80;1.40;;;;;;;18.19;75.80;101751.22;10573994;28;20043;-75
2022/08/26 08:29:31;;;;;;;5.47;1.27;;;;;;;18.16;76.15;101754.59;10572958;28;20047;-75
2022/08/26 08:34:34;;;;;;;6.63;2.55;;;;;;;18.22;75.83;101756.19;10573324;28;20056;-75
2022/08/26 08:39:36;;;;;;;2.30;1.45;;;;;;;18.27;75.71;101758.84;10574125;28;20052;-75
2022/08/26 08:44:44;;;;;;;3.83;1.65;;;;;;;18.26;75.59;101751.66;10573579;28;20414;-75
2022/08/26 08:49:46;;;;;;;1.48;1.17;;;;;;;18.25;75.46;101757.53;10571508;28;20083;-75
2022/08/26 08:54:48;;;;;;;2.40;1.30;;;;;;;18.18;76.18;101749.56;10573263;28;20118;-75
2022/08/26 09:00:11;;;;;;;1.63;1.08;;;;;;;18.14;75.66;101751.31;10572648;28;20059;-75
2022/08/26 09:05:20;;;;;;;3.53;1.60;;;;;;;18.25;76.00;101746.41;10571465;28;20045;-74
2022/08/26 09:10:28;;;;;;;2.67;1.50;;;;;;;18.34;75.91;101739.81;10571383;28;20056;-74
2022/08/26 09:16:07;;;;;;;4.30;1.80;;;;;;;18.39;75.42;101738.91;10570854;28;20051;-75
2022/08/26 09:21:11;;;;;;;3.33;1.60;;;;;;;18.37;75.57;101739.19;10570783;28;20410;-74
2022/08/26 09:26:19;;;;;;;2.40;1.30;;;;;;;18.38;75.59;101746.41;10571508;28;20040;-75
2022/08/26 09:31:22;;;;;;;;;;;;;;;18.45;75.19;101742.41;10553777;28;20494;-74
2022/08/26 09:36:42;;;;;;;5.28;1.42;;;;;;;18.48;74.89;101750.97;10571121;28;19931;-75
2022/08/26 09:42:01;;;;;;;7.60;1.58;;;;;;;18.54;74.79;101746.13;10570851;28;20422;-76
2022/08/26 09:47:05;;;;;;;5.40;1.50;;;;;;;18.61;74.72;101736.25;10570702;28;20055;-74
2022/08/26 09:52:19;;;;;;;3.33;1.50;;;;;;;18.65;74.44;101751.22;10569334;28;20078;-76
2022/08/26 09:57:29;;;;;;;2.40;2.00;;;;;;;18.77;74.11;101756.25;10569309;28;20036;-75
2022/08/26 10:02:31;;;;;;;1.30;1.20;;;;;;;18.81;73.62;101754.50;10571201;28;20051;-75
2022/08/26 10:07:45;;;;;;;3.28;1.10;;;;;;;18.80;74.02;101749.25;10570540;28;20051;-75
2022/08/26 10:13:06;;;;;;;1.90;1.10;;;;;;;18.78;74.68;101749.56;10568861;28;20039;-75
2022/08/26 10:18:14;;;;;;;1.50;1.08;;;;;;;18.70;74.73;101747.50;10570768;28;20403;-75
2022/08/26 10:23:20;;;;;;;2.55;1.30;;;;;;;18.60;74.84;101742.94;10569195;28;20054;-75
2022/08/26 10:28:40;;;;;;;1.50;1.23;;;;;;;18.49;75.45;101751.78;10569462;28;20040;-75
2022/08/26 10:33:43;;;;;;;4.60;1.58;;;;;;;18.35;75.86;101744.25;10570338;28;20050;-75
2022/08/26 10:38:45;;;;;;;3.95;1.58;;;;;;;18.36;76.14;101742.28;10569496;28;20517;-75
2022/08/26 10:43:51;;;;;;;1.65;1.55;;;;;;;18.28;76.65;101734.69;10568833;28;20047;-75
2022/08/26 10:49:01;;;;;;;3.40;1.35;;;;;;;18.23;77.04;101743.13;10567956;28;20055;-75
2022/08/26 10:54:09;;;;;;;2.30;1.38;;;;;;;18.29;77.16;101742.69;10576572;28;20520;-75
2022/08/26 10:59:38;;;;;;;1.63;1.15;;;;;;;18.31;77.37;101739.63;10576925;28;20048;-75
2022/08/26 11:04:43;;;;;;;3.88;1.83;;;;;;;18.35;77.23;101735.09;10577834;28;20039;-75
2022/08/26 11:09:46;;;;;;;3.33;1.45;;;;;;;18.51;77.67;101728.09;10577435;28;20062;-75
2022/08/26 11:14:49;;;;;;;2.25;1.58;;;;;;;18.61;76.70;101724.31;10576191;28;20494;-75
2022/08/26 11:19:51;;;;;;;2.97;1.60;;;;;;;18.57;76.88;101729.66;10577147;28;20505;-75
2022/08/26 11:24:56;;;;;;;5.18;1.98;;;;;;;18.65;76.39;101731.75;10576491;28;20122;-75
2022/08/26 11:30:14;;;;;;;3.90;1.48;;;;;;;18.64;76.16;101721.75;10576079;28;20051;-75
2022/08/26 11:35:16;;;;;;;3.15;2.20;;;;;;;18.62;76.37;101723.19;10576203;28;20040;-76
2022/08/26 11:40:24;;;;;;;4.60;2.05;;;;;;;18.61;76.60;101718.75;10576460;28;20056;-76
2022/08/26 11:45:38;;;;;;;3.65;1.77;;;;;;;18.60;77.23;101714.31;10576064;28;20413;-77
2022/08/26 11:50:51;;;;;;;9.18;2.53;;;;;;;18.65;76.86;101720.63;10575235;28;20047;-74
2022/08/26 11:55:55;;;;;;;6.82;2.75;;;;;;;18.68;76.54;101706.09;10576064;28;20494;-74
2022/08/26 12:01:01;;;;;;;4.72;2.08;;;;;;;18.67;76.29;101709.19;10572707;28;20036;-76
2022/08/26 12:06:13;;;;;;;6.55;1.85;;;;;;;18.67;76.44;101706.41;10573803;28;20506;-71
2022/08/26 12:11:24;;;;;;;7.68;2.55;;;;;;;18.62;76.06;101703.72;10574035;28;20051;-74
2022/08/26 12:16:31;;;;;;;6.85;2.22;;;;;;;18.57;75.94;101701.00;10573093;28;20557;-73
2022/08/26 12:21:33;;;;;;;4.43;2.00;;;;;;;18.63;76.23;101697.88;10574791;28;20055;-74
2022/08/26 12:26:36;;;;;;;3.53;1.75;;;;;;;18.73;76.20;101701.56;10572985;28;20052;-71
2022/08/26 12:31:40;;;;;;;5.00;2.10;;;;;;;18.76;76.13;101696.22;10573491;28;20048;-72
2022/08/26 12:36:46;;;;;;;4.57;2.35;;;;;;;18.79;75.89;101692.81;10574030;28;20043;-72
2022/08/26 12:41:52;;;;;;;5.22;2.10;;;;;;;18.81;75.81;101690.53;10571964;28;20126;-72
2022/08/26 12:47:04;;;;;;;3.83;2.20;;;;;;;18.80;75.58;101701.97;10572041;28;20148;-72
2022/08/26 12:52:08;;;;;;;4.32;1.85;;;;;;;18.81;75.38;101698.06;10571528;28;20055;-72
2022/08/26 12:57:12;;;;;;;2.70;1.95;;;;;;;18.83;74.97;101699.41;10571275;28;20044;-73
2022/08/26 13:02:34;;;;;;;4.25;1.80;;;;;;;18.86;74.66;101698.78;10565106;28;20048;-73
2022/08/26 13:07:37;;;;;;;6.63;2.30;;;;;;;18.76;75.13;101695.41;10572224;28;20418;-73
2022/08/26 13:12:39;;;;;;;5.15;2.10;;;;;;;18.73;74.99;101691.25;10571528;28;20051;-73
2022/08/26 13:17:42;;;;;;;5.82;2.20;;;;;;;18.75;75.74;101689.03;10572206;28;20055;-72
2022/08/26 13:22:44;;;;;;;3.80;1.95;;;;;;;18.62;76.41;101681.47;10572184;28;20043;-72
2022/08/26 13:27:47;;;;;;;6.80;2.45;;;;;;;18.63;76.61;101692.31;10572050;28;20146;-72
2022/08/26 13:32:53;;;;;;;3.10;2.00;;;;;;;18.61;77.02;101689.00;10572202;28;20052;-72
2022/08/26 13:37:56;;;;;;;3.42;2.42;;;;;;;18.52;76.75;101687.22;10570539;28;20052;-72
2022/08/26 13:42:58;;;;;;;2.83;1.95;;;;;;;18.43;77.51;101681.59;10571519;28;20047;-72
2022/08/26 13:48:00;;;;;;;4.03;2.10;;;;;;;18.35;77.98;101676.72;10583281;28;20051;-73
2022/08/26 13:53:02;;;;;;;3.58;2.67;;;;;;;18.28;78.39;101665.22;10566347;28;20509;-74
2022/08/26 13:58:04;;;;;;;3.40;2.65;;;;;;;18.21;78.80;101668.38;10582489;28;20502;-74
2022/08/26 14:03:08;;;;;;;3.88;2.65;;;;;;;18.25;78.90;101663.06;10568148;28;20131;-72
2022/08/26 14:08:10;;;;;;;4.15;2.85;;;;;;;18.21;79.54;101659.22;10567217;28;20441;-73
2022/08/26 14:13:13;;;;;;;4.43;3.10;;;;;;;18.21;79.90;101651.72;10566692;28;20493;-73
2022/08/26 14:18:17;;;;;;;3.85;2.25;;;;;;;18.22;79.39;101660.88;10586485;28;20481;-74
2022/08/26 14:23:19;;;;;;;2.97;2.05;;;;;;;18.18;79.42;101657.88;10570459;28;20040;-74
2022/08/26 14:28:21;;;;;;;3.85;2.70;;;;;;;18.19;78.91;101653.97;10568069;28;20032;-74
2022/08/26 14:33:26;;;;;;;3.38;2.50;;;;;;;18.17;79.36;101649.88;10571600;28;20046;-73
2022/08/26 14:38:28;;;;;;;4.70;2.25;;;;;;;18.09;80.05;101645.84;10575395;28;20055;-73
2022/08/26 14:43:31;;;;;;;4.78;2.25;;;;;;;18.14;80.30;101645.75;10562395;28;20442;-72
2022/08/26 14:48:33;;;;;;;3.33;2.60;;;;;;;18.09;80.38;101637.53;10581970;28;20044;-72
2022/08/26 14:58:59;;;;;;;3.67;2.10;;;;;;;17.88;81.14;101641.81;10565890;28;20066;-73
2022/08/26 15:04:01;;;;;;;6.15;2.47;;;;;;;17.83;81.56;101634.38;10567436;28;20409;-73
2022/08/26 15:09:04;;;;;;;3.85;1.88;;;;;;;17.80;81.49;101634.19;10566659;28;20065;-75
2022/08/26 15:14:06;;;;;;;3.13;2.45;;;;;;;17.75;81.82;101632.34;10563368;28;20044;-73
2022/08/26 15:19:08;;;;;;;6.85;2.38;;;;;;;17.66;82.42;101618.28;10575664;28;20051;-75
2022/08/26 15:24:11;;;;;;;3.70;2.22;;;;;;;17.63;82.29;101613.34;10566606;28;20056;-73
2022/08/26 15:29:13;;;;;;;2.33;1.75;;;;;;;17.66;82.33;101612.72;10565964;28;20054;-76
2022/08/26 15:34:16;;;;;;;3.45;2.33;;;;;;;17.69;82.29;101591.88;10564294;28;20067;-76
2022/08/26 15:39:19;;;;;;;2.20;1.77;;;;;;;17.83;82.67;101586.38;10574564;28;20082;-76
2022/08/26 15:44:21;;;;;;;4.85;2.30;;;;;;;17.92;81.98;101584.53;10574237;28;20040;-76
2022/08/26 15:49:23;;;;;;;6.32;2.47;;;;;;;17.94;82.39;101588.66;10575361;28;20058;-74
2022/08/26 15:54:25;;;;;;;3.47;1.92;;;;;;;17.90;82.25;101581.25;10575160;28;20059;-74
2022/08/26 15:59:31;;;;;;;3.05;1.98;;;;;;;17.93;82.12;101580.63;10574374;28;20044;-74
2022/08/26 16:04:33;;;;;;;4.22;2.08;;;;;;;17.93;81.60;101575.91;10573761;28;20055;-76
2022/08/26 16:09:35;;;;;;;2.90;1.80;;;;;;;17.90;81.14;101582.06;10572802;28;20055;-75
2022/08/26 16:14:50;;;;;;;2.50;1.90;;;;;;;17.87;81.18;101574.34;10558267;28;20127;-76
2022/08/26 16:19:55;;;;;;;2.67;1.55;;;;;;;17.92;81.18;101576.22;10573498;28;20142;-75
2022/08/26 16:24:57;;;;;;;2.42;1.60;;;;;;;17.93;81.25;101567.56;10572994;28;20516;-75
2022/08/26 16:29:59;;;;;;;3.60;2.25;;;;;;;17.95;81.22;101567.25;10574091;28;20056;-75
2022/08/26 16:35:01;;;;;;;4.63;2.03;;;;;;;17.84;81.49;101568.56;10588057;28;20414;-75
2022/08/26 16:40:05;;;;;;;1.80;1.58;;;;;;;17.85;81.15;101561.88;10573080;28;20489;-75
2022/08/26 16:45:08;;;;;;;4.47;1.90;;;;;;;17.84;81.62;101568.56;10572951;28;20036;-75
2022/08/26 16:50:11;;;;;;;4.47;1.95;;;;;;;17.83;81.97;101561.38;10568855;28;20051;-75
2022/08/26 16:55:14;;;;;;;5.10;2.35;;;;;;;17.83;81.77;101553.06;10571448;28;20043;-73
2022/08/26 17:00:24;;;;;;;2.45;1.80;;;;;;;17.77;82.41;101555.13;10571169;28;20422;-76
2022/08/26 17:05:27;;;;;;;8.48;2.35;;;;;;;17.77;81.99;101563.44;10569938;28;20051;-76
2022/08/26 17:10:33;;;;;;;4.25;2.42;;;;;;;17.70;82.14;101546.34;10569661;28;20055;-76
2022/08/26 17:15:52;;;;;;;6.32;2.85;;;;;;;17.67;82.39;101547.75;10571825;28;20048;-76
2022/08/26 17:20:59;;;;;;;4.47;2.63;;;;;;;17.66;82.94;101548.06;10570347;28;20046;-76
2022/08/26 17:26:01;;;;;;;9.75;3.05;;;;;;;17.66;82.55;101553.63;10569485;28;20040;-77
2022/08/26 17:31:05;;;;;;;5.63;3.33;;;;;;;17.63;82.81;101552.28;10528079;28;20055;-76
2022/08/26 17:36:08;;;;;;;4.85;3.25;;;;;;;17.59;83.00;101547.66;10574941;28;20553;-75
2022/08/26 17:41:13;;;;;;;3.90;3.08;;;;;;;17.53;83.32;101546.09;10552918;28;20044;-76
2022/08/26 17:46:15;;;;;;;4.63;2.42;;;;;;;17.41;83.50;101550.19;10551202;28;20142;-76
2022/08/26 17:51:18;;;;;;;4.80;2.13;;;;;;;17.40;83.33;101550.50;10570640;28;20047;-76
2022/08/26 17:56:24;;;;;;;5.82;2.80;;;;;;;17.36;83.74;101549.47;10568769;28;20051;-76
2022/08/26 18:01:27;;;;;;;4.82;2.53;;;;;;;17.28;84.02;101559.31;10581533;28;20048;-76
2022/08/26 18:06:29;;;;;;;4.03;2.30;;;;;;;17.20;84.46;101564.72;10569047;28;20044;-75
2022/08/26 18:11:31;;;;;;;4.07;2.15;;;;;;;17.17;84.84;101571.69;10567553;28;20090;-75
2022/08/26 18:16:37;;;;;;;3.58;2.50;;;;;;;17.21;85.35;101567.19;10560971;28;20055;-77
2022/08/26 18:21:39;;;;;;;6.47;2.83;;;;;;;17.12;85.83;101569.81;10568770;28;20078;-77
2022/08/26 18:26:46;;;;;;;5.50;3.25;;;;;;;17.03;85.76;101568.88;10568757;28;20040;-75
2022/08/26 18:31:49;;;;;;;6.55;3.10;;;;;;;16.94;86.38;101579.00;10567783;28;20040;-75
2022/08/26 18:36:51;;;;;;;4.53;2.90;;;;;;;16.85;87.15;101576.09;10568544;28;20417;-75
2022/08/26 18:41:53;;;;;;;3.75;2.25;;;;;;;16.82;87.32;101575.84;10568759;28;20059;-75
2022/08/26 18:46:55;;;;;;;5.00;2.70;;;;;;;16.78;88.17;101581.16;10568696;28;20063;-75
2022/08/26 18:51:57;;;;;;;5.03;3.03;;;;;;;16.67;88.20;101573.31;10566744;28;20509;-75
2022/08/26 18:57:02;;;;;;;3.80;2.40;;;;;;;16.58;88.70;101568.41;10567502;28;20048;-75
2022/08/26 19:02:04;;;;;;;2.92;2.10;;;;;;;16.52;88.84;101575.16;10566729;28;20055;-75
2022/08/26 19:07:06;;;;;;;4.10;1.55;;;;;;;16.43;88.75;101579.69;10565979;28;20051;-77
2022/08/26 19:12:08;;;;;;;2.67;1.75;;;;;;;16.36;89.14;101582.03;10573867;28;20040;-77
2022/08/26 19:17:10;;;;;;;2.80;1.40;;;;;;;16.32;88.85;101580.97;10556048;28;20047;-77
2022/08/26 19:22:12;;;;;;;3.70;2.03;;;;;;;16.30;89.63;101574.88;10574272;28;20501;-76
2022/08/26 19:27:15;;;;;;;4.10;2.00;;;;;;;16.31;89.74;101575.69;10570849;28;20036;-77
2022/08/26 19:32:22;;;;;;;3.20;1.90;;;;;;;16.32;90.10;101583.75;10571735;28;20044;-77
2022/08/26 19:37:25;;;;;;;4.32;1.65;;;;;;;16.28;90.18;101577.13;10573884;28;20051;-77
2022/08/26 19:42:28;;;;;;;3.78;2.60;;;;;;;16.23;90.37;101586.34;10573106;28;20040;-77
2022/08/26 19:47:30;;;;;;;2.63;1.98;;;;;;;16.14;90.59;101576.19;10575318;28;20052;-77
2022/08/26 19:52:33;;;;;;;3.13;2.40;;;;;;;16.07;90.82;101589.56;10572595;28;20059;-77
2022/08/26 19:57:38;;;;;;;3.22;2.20;;;;;;;15.98;91.19;101587.47;10575402;28;20070;-77
2022/08/26 20:02:42;;;;;;;3.88;2.33;;;;;;;15.91;91.71;101580.63;10552888;28;20039;-77
2022/08/26 20:07:46;;;;;;;4.32;2.75;;;;;;;15.84;91.65;101582.94;10570312;27;20711;-77
2022/08/26 20:12:50;;;;;;;3.63;2.28;;;;;;;15.78;92.15;101579.38;10554568;28;20442;-77
2022/08/26 20:17:53;;;;;;;2.88;2.15;;;;;;;15.80;92.21;101581.88;10577079;28;20062;-76
2022/08/26 20:22:55;;;;;;;3.03;1.98;;;;;;;15.83;92.60;101584.06;10572375;28;20406;-76
2022/08/26 20:27:57;;;;;;;4.88;2.33;;;;;;;15.87;92.45;101577.63;10570621;28;20051;-75
2022/08/26 20:33:25;;;;;;;4.97;2.72;;;;;;;15.87;93.02;101585.09;10569361;28;20047;-74
2022/08/26 20:38:27;;;;;;;4.03;2.40;;;;;;;15.90;93.47;101582.56;10566723;28;20048;-73
2022/08/26 20:43:33;;;;;;;3.55;2.53;;;;;;;15.83;93.36;101568.28;10571077;28;20048;-73
2022/08/26 20:48:36;;;;;;;4.07;2.20;;;;;;;15.83;93.21;101579.34;10563140;28;20055;-73
2022/08/26 20:53:38;;;;;;;5.40;2.53;;;;;;;15.81;93.19;101578.00;10571625;28;20052;-73
2022/08/26 20:58:41;;;;;;;6.15;2.83;;;;;;;15.82;93.49;101560.25;10571940;28;20051;-73
2022/08/26 21:03:45;;;;;;;3.95;2.85;;;;;;;15.81;93.51;101567.75;10570663;28;20066;-74
2022/08/26 21:08:47;;;;;;;2.85;2.05;;;;;;;15.77;93.88;101568.59;10569110;28;20036;-74
2022/08/26 21:13:49;;;;;;;6.10;2.92;;;;;;;15.72;93.75;101572.25;10572333;28;20055;-74
2022/08/26 21:18:51;;;;;;;7.28;2.90;;;;;;;15.71;93.71;101565.06;10565207;28;20048;-74
2022/08/26 21:23:54;;;;;;;5.75;2.10;;;;;;;15.68;93.96;101562.91;10574029;28;20047;-74
2022/08/26 21:28:59;;;;;;;7.88;3.00;;;;;;;15.65;94.08;101560.72;10570404;28;20040;-74
2022/08/26 21:34:01;;;;;;;5.78;2.40;;;;;;;15.62;94.48;101564.06;10570506;28;20044;-73
2022/08/26 21:39:03;;;;;;;3.88;2.30;;;;;;;15.62;93.93;101558.53;10569276;28;20418;-73
2022/08/26 21:44:06;;;;;;;6.18;3.13;;;;;;;15.59;94.07;101564.63;10570292;28;20039;-74
2022/08/26 21:49:11;;;;;;;4.00;2.70;;;;;;;15.55;94.97;101560.78;10566002;28;20056;-74
2022/08/26 21:54:14;;;;;;;3.72;2.28;;;;;;;15.52;94.85;101553.06;10562572;28;20036;-74
2022/08/26 21:59:17;;;;;;;5.78;2.15;;;;;;;15.48;94.58;101549.25;10570203;28;20044;-74
2022/08/26 22:04:20;;;;;;;5.38;2.70;;;;;;;15.38;95.23;101556.50;10565019;28;20063;-74
2022/08/26 22:09:24;;;;;;;5.05;2.80;;;;;;;15.28;95.40;101553.84;10569025;28;20040;-74
2022/08/26 22:14:27;;;;;;;4.72;2.78;;;;;;;15.21;95.07;101545.06;10550380;28;20055;-76
2022/08/26 22:19:30;;;;;;;4.22;3.22;;;;;;;15.12;95.49;101552.34;10569946;28;20044;-73
2022/08/26 22:24:33;;;;;;;5.78;3.13;;;;;;;15.03;95.58;101554.06;10569728;28;20044;-73
2022/08/26 22:29:35;;;;;;;6.50;2.85;;;;;;;14.97;95.45;101547.75;10567847;28;20056;-74
2022/08/26 22:34:37;;;;;;;4.38;2.60;;;;;;;14.93;95.98;101541.16;10567575;28;20048;-74
2022/08/26 22:39:39;;;;;;;4.60;3.17;;;;;;;14.95;96.38;101533.41;10568887;28;20048;-74
2022/08/26 22:44:42;;;;;;;4.03;2.53;;;;;;;14.99;97.05;101534.47;10568773;28;20048;-73
2022/08/26 22:49:45;;;;;;;3.28;2.45;;;;;;;15.01;97.12;101537.75;10576279;28;20044;-73
2022/08/26 22:54:48;;;;;;;5.22;3.08;;;;;;;15.07;97.46;101536.59;10576971;28;20056;-73
2022/08/26 22:59:50;;;;;;;4.05;2.40;;;;;;;15.06;97.25;101534.13;10575284;28;20040;-73
2022/08/26 23:04:52;;;;;;;4.35;2.45;;;;;;;15.07;97.79;101533.00;10575257;28;20051;-73
2022/08/26 23:09:54;;;;;;;2.88;2.38;;;;;;;15.15;98.05;101531.56;10575534;28;20044;-74
2022/08/26 23:14:56;;;;;;;3.60;2.30;;;;;;;15.20;98.11;101529.59;10576338;28;20040;-74
2022/08/26 23:19:58;;;;;;;3.78;2.70;;;;;;;15.21;98.27;101528.47;10576562;28;20047;-74
2022/08/26 23:25:01;;;;;;;5.00;2.72;;;;;;;15.22;97.97;101523.75;10574427;28;20036;-74
2022/08/26 23:30:05;;;;;;;4.05;2.40;;;;;;;15.17;97.99;101513.56;10576731;28;20055;-74
2022/08/26 23:35:09;;;;;;;7.35;3.83;;;;;;;15.08;98.09;101516.13;10574935;28;20055;-73